Time;durP1;ratioP1;P1;durP2;ratioP2;P2;SDS_P1;SDS_P2;PMS_P1;PMS_P2;Temp;Humidity;BMP_temperature;BMP_pressure;BME280_temperature;BME280_humidity;BME280_pressure;Samples;Min_cycle;Max_cycle;Signal;HPM_P1;HPM_P2
2023/12/08 00:00:37;;;;;;;1.08;1.08;;;3.30;99.90;;;;;;4925772;29;20027;-76
2023/12/08 00:03:03;;;;;;;0.10;0.10;;;;;;;;;;4953765;29;20019;-78
2023/12/08 00:05:29;;;;;;;0.68;0.68;;;3.40;99.90;;;;;;4949517;29;20501;-76
2023/12/08 00:07:56;;;;;;;0.10;0.10;;;3.40;99.90;;;;;;4942964;29;20074;-76
2023/12/08 00:10:22;;;;;;;0.10;0.10;;;;;;;;;;4940740;29;20059;-78
2023/12/08 00:12:48;;;;;;;0.10;0.10;;;3.30;99.90;;;;;;4947963;28;20019;-76
2023/12/08 00:15:14;;;;;;;0.10;0.10;;;3.30;99.90;;;;;;4963448;28;20071;-77
2023/12/08 00:17:40;;;;;;;10.13;6.53;;;3.30;99.90;;;;;;4952044;28;20031;-76
2023/12/08 00:20:06;;;;;;;0.00;0.00;;;3.20;99.90;;;;;;4971247;28;20023;-77
2023/12/08 00:22:32;;;;;;;0.10;0.10;;;3.30;99.90;;;;;;4971075;28;20019;-76
2023/12/08 00:25:05;;;;;;;0.10;0.10;;;3.30;99.90;;;;;;4948115;28;20030;-76
2023/12/08 00:27:33;;;;;;;0.10;0.10;;;3.20;99.90;;;;;;4967505;28;20063;-80
2023/12/08 00:29:58;;;;;;;0.10;0.10;;;3.20;99.90;;;;;;4976729;28;20047;-77
2023/12/08 00:32:24;;;;;;;0.30;0.30;;;3.60;99.90;;;;;;4972431;28;20089;-76
2023/12/08 00:35:02;;;;;;;0.10;0.10;;;3.20;99.90;;;;;;4970582;28;20455;-77
2023/12/08 00:37:37;;;;;;;0.10;0.10;;;1.00;99.90;;;;;;4967096;28;20102;-78
2023/12/08 00:40:05;;;;;;;0.10;0.10;;;3.10;99.90;;;;;;4974858;28;20106;-77
2023/12/08 00:42:37;;;;;;;0.10;0.10;;;3.20;99.90;;;;;;4967880;28;20693;-77
2023/12/08 00:45:04;;;;;;;0.10;0.10;;;3.20;99.90;;;;;;4965673;28;20039;-76
2023/12/08 00:47:51;;;;;;;0.10;0.10;;;3.20;99.90;;;;;;4965320;28;20023;-77
2023/12/08 00:50:20;;;;;;;0.08;0.08;;;3.10;99.90;;;;;;4965254;28;20113;-76
2023/12/08 00:52:50;;;;;;;1.90;1.85;;;3.10;99.90;;;;;;4950091;28;20030;-76
2023/12/08 00:55:22;;;;;;;0.10;0.10;;;3.10;99.90;;;;;;4966223;28;20049;-76
2023/12/08 00:57:48;;;;;;;1.95;1.10;;;;;;;;;;4958801;28;20047;-76
2023/12/08 01:00:17;;;;;;;0.10;0.10;;;3.00;99.90;;;;;;4945262;29;20023;-76
2023/12/08 01:02:43;;;;;;;0.13;0.13;;;3.00;99.90;;;;;;4954581;29;20019;-76
2023/12/08 01:05:09;;;;;;;0.43;0.43;;;3.00;99.90;;;;;;4954227;29;20030;-78
2023/12/08 01:07:35;;;;;;;0.10;0.10;;;3.00;99.90;;;;;;4937400;28;20158;-77
2023/12/08 01:10:01;;;;;;;5.18;3.50;;;2.90;99.90;;;;;;4945345;29;20055;-77
2023/12/08 01:12:37;;;;;;;0.10;0.10;;;2.90;99.90;;;;;;4956025;29;20034;-77
2023/12/08 01:15:07;;;;;;;0.10;0.10;;;2.80;99.90;;;;;;4953103;29;20031;-76
2023/12/08 01:17:32;;;;;;;1.98;1.88;;;2.80;99.90;;;;;;4947066;29;20067;-76
2023/12/08 01:20:07;;;;;;;0.10;0.10;;;2.90;99.90;;;;;;4930876;29;20755;-82
2023/12/08 01:22:35;;;;;;;0.00;0.00;;;2.90;99.90;;;;;;4951974;29;20028;-77
2023/12/08 01:25:01;;;;;;;0.10;0.10;;;;;;;;;;4953218;29;20686;-76
2023/12/08 01:27:39;;;;;;;0.10;0.10;;;3.00;99.90;;;;;;4952675;29;20525;-76
2023/12/08 01:30:08;;;;;;;0.10;0.10;;;3.00;99.90;;;;;;4947082;29;20027;-76
2023/12/08 01:32:34;;;;;;;0.10;0.10;;;2.90;99.90;;;;;;4946915;29;20110;-77
2023/12/08 01:35:01;;;;;;;0.00;0.00;;;3.00;99.90;;;;;;4949839;29;20087;-79
2023/12/08 01:37:26;;;;;;;0.10;0.10;;;3.00;99.90;;;;;;4954138;29;20070;-78
2023/12/08 01:39:52;;;;;;;0.20;0.20;;;3.00;99.90;;;;;;4929326;29;20285;-76
2023/12/08 01:42:24;;;;;;;0.10;0.10;;;3.00;99.90;;;;;;4944608;29;20034;-80
2023/12/08 01:44:50;;;;;;;0.10;0.10;;;2.90;99.90;;;;;;4942668;29;20015;-76
2023/12/08 01:47:16;;;;;;;0.00;0.00;;;2.90;99.90;;;;;;4927618;29;20027;-77
2023/12/08 01:49:43;;;;;;;0.00;0.00;;;2.80;99.90;;;;;;4944299;29;20055;-75
2023/12/08 01:52:12;;;;;;;0.10;0.10;;;2.80;99.90;;;;;;4941757;29;20051;-75
2023/12/08 01:54:38;;;;;;;0.10;0.10;;;2.80;99.90;;;;;;4944398;29;20046;-76
2023/12/08 01:57:04;;;;;;;0.00;0.00;;;3.50;99.90;;;;;;4944274;28;20659;-76
2023/12/08 01:59:33;;;;;;;0.10;0.10;;;2.80;99.90;;;;;;4927623;29;20049;-76
2023/12/08 02:01:58;;;;;;;0.05;0.05;;;2.80;99.90;;;;;;4945594;29;20309;-76
2023/12/08 02:04:25;;;;;;;1.17;1.17;;;2.70;99.90;;;;;;4947490;29;20520;-76
2023/12/08 02:06:51;;;;;;;0.10;0.10;;;2.70;99.90;;;;;;4943470;29;20313;-76
2023/12/08 02:09:17;;;;;;;0.10;0.10;;;2.70;99.90;;;;;;4943532;29;20686;-81
2023/12/08 02:11:44;;;;;;;2.15;2.08;;;2.70;99.90;;;;;;4942439;29;20051;-76
2023/12/08 02:14:13;;;;;;;0.00;0.00;;;2.60;99.90;;;;;;4943096;29;20015;-76
2023/12/08 02:16:47;;;;;;;0.10;0.10;;;2.70;99.90;;;;;;4943852;29;20031;-76
2023/12/08 02:19:15;;;;;;;0.10;0.10;;;2.70;99.90;;;;;;4943893;29;20035;-76
2023/12/08 02:21:41;;;;;;;0.00;0.00;;;2.70;99.90;;;;;;4945654;29;20114;-76
2023/12/08 02:24:07;;;;;;;0.10;0.10;;;2.60;99.90;;;;;;4951824;29;20019;-76
2023/12/08 02:26:35;;;;;;;0.47;0.47;;;2.50;99.90;;;;;;4933488;29;20031;-76
2023/12/08 02:29:01;;;;;;;0.00;0.00;;;2.50;99.90;;;;;;4943990;29;20012;-76
2023/12/08 02:31:46;;;;;;;0.10;0.10;;;2.50;99.90;;;;;;4925777;29;20091;-76
2023/12/08 02:34:16;;;;;;;0.00;0.00;;;2.50;99.90;;;;;;4942425;29;20030;-76
2023/12/08 02:36:45;;;;;;;0.00;0.00;;;2.40;99.90;;;;;;4925102;29;20043;-78
2023/12/08 02:39:15;;;;;;;0.10;0.10;;;2.40;99.90;;;;;;4941887;29;20019;-76
2023/12/08 02:41:42;;;;;;;0.10;0.10;;;2.40;99.90;;;;;;4943156;29;20023;-77
2023/12/08 02:44:08;;;;;;;0.10;0.10;;;2.40;99.90;;;;;;4923793;23;20062;-77
2023/12/08 02:46:34;;;;;;;0.10;0.10;;;2.50;99.90;;;;;;4949973;28;20148;-76
2023/12/08 02:49:00;;;;;;;0.10;0.10;;;2.40;99.90;;;;;;4962957;28;20441;-78
2023/12/08 02:51:38;;;;;;;5.38;5.18;;;2.40;99.90;;;;;;4944986;28;20034;-76
2023/12/08 02:54:04;;;;;;;54.88;49.70;;;2.30;99.90;;;;;;4961993;28;20050;-77
2023/12/08 02:56:30;;;;;;;0.10;0.10;;;2.20;99.90;;;;;;4944367;28;20034;-77
2023/12/08 02:58:56;;;;;;;0.10;0.10;;;2.20;99.90;;;;;;4961197;28;20027;-76
2023/12/08 03:01:21;;;;;;;0.10;0.10;;;2.10;99.90;;;;;;4944371;28;20102;-78
2023/12/08 03:03:47;;;;;;;0.47;0.47;;;2.10;99.90;;;;;;4961552;28;20030;-76
2023/12/08 03:06:13;;;;;;;0.40;0.40;;;2.10;99.90;;;;;;4953465;28;20038;-76
2023/12/08 03:08:42;;;;;;;0.20;0.20;;;2.10;99.90;;;;;;4944481;28;20023;-76
2023/12/08 03:11:11;;;;;;;2.33;2.25;;;2.20;99.90;;;;;;4964106;28;20030;-76
2023/12/08 03:13:39;;;;;;;2.53;2.45;;;2.10;99.90;;;;;;4962865;28;20027;-76
2023/12/08 03:16:11;;;;;;;0.10;0.10;;;2.10;99.90;;;;;;4962122;28;20771;-76
2023/12/08 03:18:37;;;;;;;0.08;0.08;;;2.10;99.90;;;;;;4965666;28;20076;-77
2023/12/08 03:21:05;;;;;;;0.10;0.10;;;2.20;99.90;;;;;;4967260;28;20440;-76
2023/12/08 03:23:31;;;;;;;0.10;0.10;;;2.10;99.90;;;;;;4955546;28;20026;-76
2023/12/08 03:25:57;;;;;;;0.10;0.10;;;2.10;99.90;;;;;;4946364;28;20101;-77
2023/12/08 03:28:29;;;;;;;0.10;0.10;;;2.10;99.90;;;;;;4943638;28;20019;-76
2023/12/08 03:30:55;;;;;;;0.10;0.10;;;2.10;99.90;;;;;;4944170;28;20093;-77
2023/12/08 03:33:21;;;;;;;0.15;0.15;;;2.00;99.90;;;;;;4963263;28;20027;-76
2023/12/08 03:35:47;;;;;;;0.10;0.10;;;2.00;99.90;;;;;;4944338;28;20542;-76
2023/12/08 03:38:12;;;;;;;0.10;0.10;;;2.00;99.90;;;;;;4960959;28;20102;-76
2023/12/08 03:40:38;;;;;;;0.10;0.10;;;1.90;99.90;;;;;;4961493;28;20516;-76
2023/12/08 03:43:04;;;;;;;0.10;0.10;;;;;;;;;;4942119;28;20059;-76
2023/12/08 03:45:33;;;;;;;1.08;1.08;;;1.90;99.90;;;;;;4960629;28;20306;-75
2023/12/08 03:47:59;;;;;;;0.20;0.20;;;1.90;99.90;;;;;;4959909;28;20030;-75
2023/12/08 03:50:26;;;;;;;2.08;1.98;;;1.90;99.90;;;;;;4943192;28;20019;-76
2023/12/08 03:52:54;;;;;;;0.10;0.10;;;1.90;99.90;;;;;;4942936;28;20038;-75
2023/12/08 03:55:21;;;;;;;0.20;0.20;;;1.90;99.90;;;;;;4927725;28;20065;-76
2023/12/08 03:57:47;;;;;;;0.20;0.20;;;1.90;99.90;;;;;;4960678;28;20114;-76
2023/12/08 04:00:16;;;;;;;0.10;0.10;;;1.90;99.90;;;;;;4960365;28;20089;-76
2023/12/08 04:02:42;;;;;;;0.10;0.10;;;1.80;99.90;;;;;;4962467;28;20025;-76
2023/12/08 04:05:11;;;;;;;0.20;0.20;;;1.80;99.90;;;;;;4965394;28;20030;-75
2023/12/08 04:07:37;;;;;;;0.70;0.70;;;1.80;99.90;;;;;;4964797;28;20027;-80
2023/12/08 04:10:12;;;;;;;0.20;0.20;;;1.80;99.90;;;;;;4965291;28;20110;-76
2023/12/08 04:12:37;;;;;;;0.10;0.10;;;1.80;99.90;;;;;;4966537;28;20034;-76
2023/12/08 04:15:03;;;;;;;0.10;0.10;;;1.80;99.90;;;;;;4967523;28;20081;-76
2023/12/08 04:17:29;;;;;;;0.98;0.98;;;1.80;99.90;;;;;;4950116;28;20050;-78
2023/12/08 04:19:55;;;;;;;0.10;0.10;;;1.80;99.90;;;;;;4954032;28;20042;-76
2023/12/08 04:22:21;;;;;;;0.10;0.10;;;1.80;99.90;;;;;;4975583;28;20026;-76
2023/12/08 04:24:57;;;;;;;1.33;1.33;;;1.90;99.90;;;;;;4968128;28;20019;-76
2023/12/08 04:27:23;;;;;;;0.10;0.10;;;1.90;99.90;;;;;;4954435;28;20257;-76
2023/12/08 04:29:48;;;;;;;0.10;0.10;;;1.90;99.90;;;;;;4975465;28;20022;-76
2023/12/08 04:32:14;;;;;;;0.20;0.20;;;1.90;99.90;;;;;;4974594;28;20023;-76
2023/12/08 04:34:40;;;;;;;0.20;0.20;;;2.00;99.90;;;;;;4974386;28;20031;-76
2023/12/08 04:37:06;;;;;;;1.05;1.05;;;2.00;99.90;;;;;;4971724;28;20034;-76
2023/12/08 04:39:32;;;;;;;0.13;0.13;;;2.00;99.90;;;;;;4966005;28;20019;-76
2023/12/08 04:41:57;;;;;;;0.10;0.10;;;2.00;99.90;;;;;;4972411;28;20026;-76
2023/12/08 04:44:32;;;;;;;0.17;0.17;;;1.90;99.90;;;;;;4967462;28;20043;-76
2023/12/08 04:46:59;;;;;;;0.10;0.10;;;1.90;99.90;;;;;;4965278;28;20031;-76
2023/12/08 04:49:29;;;;;;;0.10;0.10;;;1.80;99.90;;;;;;4966048;28;20887;-76
2023/12/08 04:51:58;;;;;;;0.20;0.20;;;1.80;99.90;;;;;;4956132;28;20709;-76
2023/12/08 04:54:23;;;;;;;4.22;4.03;;;1.70;99.90;;;;;;4952985;29;20363;-76
2023/12/08 04:56:50;;;;;;;0.13;0.13;;;1.70;99.90;;;;;;4968477;28;20059;-75
2023/12/08 04:59:16;;;;;;;0.10;0.10;;;1.70;99.90;;;;;;4945176;29;20587;-76
2023/12/08 05:01:42;;;;;;;0.20;0.20;;;1.70;99.90;;;;;;4946273;28;20031;-76
2023/12/08 05:04:08;;;;;;;0.10;0.10;;;1.60;99.90;;;;;;4943655;29;20057;-75
2023/12/08 05:06:34;;;;;;;0.20;0.20;;;1.60;99.90;;;;;;4960435;28;20504;-76
2023/12/08 05:09:00;;;;;;;0.10;0.10;;;1.50;99.90;;;;;;4965778;28;20049;-76
2023/12/08 05:11:26;;;;;;;0.13;0.13;;;1.60;99.90;;;;;;4965108;28;20659;-76
2023/12/08 05:13:52;;;;;;;0.10;0.10;;;1.50;99.90;;;;;;4964511;28;20065;-75
2023/12/08 05:16:17;;;;;;;0.10;0.10;;;1.50;99.90;;;;;;4946000;29;20043;-77
2023/12/08 05:18:44;;;;;;;0.10;0.10;;;1.40;99.90;;;;;;4964362;28;20026;-77
2023/12/08 05:21:19;;;;;;;0.20;0.20;;;1.40;99.90;;;;;;4968263;28;20017;-75
2023/12/08 05:23:46;;;;;;;0.20;0.20;;;1.50;99.90;;;;;;4970812;28;20134;-75
2023/12/08 05:26:12;;;;;;;2.85;2.75;;;1.40;99.90;;;;;;4953821;29;20031;-75
2023/12/08 05:28:38;;;;;;;12.57;12.05;;;1.40;99.90;;;;;;4967511;28;20449;-76
2023/12/08 05:31:04;;;;;;;0.10;0.10;;;1.30;99.90;;;;;;4972476;28;20052;-75
2023/12/08 05:33:43;;;;;;;0.10;0.10;;;1.20;99.90;;;;;;4967190;28;20031;-78
2023/12/08 05:36:09;;;;;;;0.10;0.10;;;1.10;99.90;;;;;;4973474;28;20090;-75
2023/12/08 05:38:35;;;;;;;0.10;0.10;;;1.10;99.90;;;;;;4964957;28;20448;-76
2023/12/08 05:41:03;;;;;;;0.10;0.10;;;1.10;99.90;;;;;;4968751;28;20023;-75
2023/12/08 05:43:29;;;;;;;0.10;0.10;;;1.10;99.90;;;;;;4948512;29;20122;-76
2023/12/08 05:45:55;;;;;;;0.20;0.20;;;1.10;99.90;;;;;;4965759;28;20023;-78
2023/12/08 05:48:21;;;;;;;0.10;0.10;;;1.10;99.90;;;;;;4967728;28;20114;-77
2023/12/08 05:50:47;;;;;;;0.10;0.10;;;1.20;99.90;;;;;;4970104;28;20030;-76
2023/12/08 05:53:14;;;;;;;0.10;0.10;;;1.10;99.90;;;;;;4969246;28;20027;-77
2023/12/08 05:55:40;;;;;;;1.58;1.58;;;1.10;99.90;;;;;;4945274;29;20079;-75
2023/12/08 05:58:07;;;;;;;0.10;0.10;;;1.00;99.90;;;;;;4965807;28;20566;-75
2023/12/08 06:00:33;;;;;;;0.13;0.13;;;1.10;99.90;;;;;;4964681;28;20307;-76
2023/12/08 06:02:59;;;;;;;0.10;0.10;;;1.20;99.90;;;;;;4964119;28;20462;-75
2023/12/08 06:05:26;;;;;;;2.95;2.83;;;1.20;99.90;;;;;;4965213;28;20019;-75
2023/12/08 06:07:55;;;;;;;1.00;1.00;;;1.20;99.90;;;;;;4966926;28;20189;-75
2023/12/08 06:10:23;;;;;;;0.10;0.10;;;1.10;99.90;;;;;;4950517;29;20051;-76
2023/12/08 06:12:49;;;;;;;0.10;0.10;;;1.10;99.90;;;;;;4968105;28;20087;-76
2023/12/08 06:15:14;;;;;;;0.10;0.10;;;1.00;99.90;;;;;;4964710;28;20170;-75
2023/12/08 06:17:40;;;;;;;0.57;0.57;;;0.80;99.90;;;;;;4970366;28;20031;-75
2023/12/08 06:20:09;;;;;;;0.20;0.20;;;0.90;99.90;;;;;;4962694;28;20011;-76
2023/12/08 06:22:38;;;;;;;0.20;0.20;;;0.70;99.90;;;;;;4942308;29;20634;-75
2023/12/08 06:25:04;;;;;;;0.20;0.20;;;0.40;99.90;;;;;;4961280;28;20678;-75
2023/12/08 06:27:30;;;;;;;4.53;4.35;;;0.80;99.90;;;;;;4962236;28;20023;-75
2023/12/08 06:29:56;;;;;;;0.10;0.10;;;0.80;99.90;;;;;;4943507;28;20094;-75
2023/12/08 06:32:22;;;;;;;0.10;0.10;;;0.80;99.90;;;;;;4962271;28;20378;-76
2023/12/08 06:34:48;;;;;;;0.10;0.10;;;0.90;99.90;;;;;;4944334;28;20042;-75
2023/12/08 06:37:14;;;;;;;0.10;0.10;;;1.00;99.90;;;;;;4963994;28;20687;-80
2023/12/08 06:39:41;;;;;;;0.10;0.10;;;1.10;99.90;;;;;;4930674;28;20077;-76
2023/12/08 06:42:07;;;;;;;1.17;1.17;;;1.20;99.90;;;;;;4942163;29;20039;-75
2023/12/08 06:44:33;;;;;;;0.20;0.20;;;1.20;99.90;;;;;;4960314;28;20059;-76
2023/12/08 06:46:59;;;;;;;0.20;0.20;;;1.20;99.90;;;;;;4963367;28;20050;-77
2023/12/08 06:49:26;;;;;;;0.20;0.20;;;1.20;99.90;;;;;;4945103;28;20026;-76
2023/12/08 06:51:52;;;;;;;0.20;0.20;;;1.20;99.90;;;;;;4946722;28;20035;-78
2023/12/08 06:54:19;;;;;;;0.20;0.20;;;1.30;99.90;;;;;;4964179;28;20272;-75
2023/12/08 06:56:45;;;;;;;0.10;0.10;;;1.40;99.90;;;;;;4965848;28;20034;-78
2023/12/08 06:59:11;;;;;;;0.10;0.10;;;1.40;99.90;;;;;;4964389;28;20031;-78
2023/12/08 07:01:37;;;;;;;0.10;0.10;;;1.50;99.90;;;;;;4967513;28;20090;-77
2023/12/08 07:04:03;;;;;;;0.10;0.10;;;1.50;99.90;;;;;;4947150;28;20652;-74
2023/12/08 07:06:31;;;;;;;0.20;0.20;;;1.60;99.90;;;;;;4964888;28;20576;-75
2023/12/08 07:08:57;;;;;;;0.10;0.10;;;1.60;99.90;;;;;;4968759;28;20176;-75
2023/12/08 07:11:23;;;;;;;1.08;1.08;;;1.70;99.90;;;;;;4951370;28;20837;-76
2023/12/08 07:13:49;;;;;;;0.10;0.10;;;1.70;99.90;;;;;;4951743;28;20023;-76
2023/12/08 07:16:15;;;;;;;0.10;0.10;;;1.70;99.90;;;;;;4964558;28;20039;-75
2023/12/08 07:18:40;;;;;;;0.10;0.10;;;1.90;99.90;;;;;;4948776;28;20049;-75
2023/12/08 07:21:07;;;;;;;0.10;0.10;;;1.90;99.90;;;;;;4959020;28;20651;-76
2023/12/08 07:23:33;;;;;;;0.10;0.10;;;1.80;99.90;;;;;;4944863;29;20016;-76
2023/12/08 07:25:59;;;;;;;0.75;0.75;;;2.00;99.90;;;;;;4942813;29;20058;-76
2023/12/08 07:28:25;;;;;;;0.57;0.57;;;2.00;99.90;;;;;;4942147;29;20079;-75
2023/12/08 07:30:51;;;;;;;9.90;9.55;;;2.10;99.90;;;;;;4942516;29;20022;-76
2023/12/08 07:33:17;;;;;;;0.10;0.10;;;2.10;99.90;;;;;;4924249;29;20094;-75
2023/12/08 07:35:43;;;;;;;0.10;0.10;;;2.10;99.90;;;;;;4942610;28;20084;-76
2023/12/08 07:38:24;;;;;;;0.00;0.00;;;1.90;99.90;;;;;;4915882;29;20042;-75
2023/12/08 07:40:50;;;;;;;0.10;0.10;;;2.00;99.90;;;;;;4952723;29;20027;-76
2023/12/08 07:43:16;;;;;;;0.65;0.65;;;2.20;99.90;;;;;;4928062;29;20292;-75
2023/12/08 07:45:42;;;;;;;0.10;0.10;;;2.10;99.90;;;;;;4918811;28;20057;-76
2023/12/08 07:48:08;;;;;;;0.10;0.10;;;2.10;99.90;;;;;;4945630;28;20744;-76
2023/12/08 07:50:38;;;;;;;0.03;0.03;;;2.00;99.90;;;;;;4946120;29;20684;-75
2023/12/08 07:53:04;;;;;;;0.10;0.10;;;2.00;99.90;;;;;;4933390;29;20019;-75
2023/12/08 07:55:30;;;;;;;0.10;0.10;;;1.90;99.90;;;;;;4937576;29;20070;-75
2023/12/08 07:57:55;;;;;;;0.20;0.20;;;1.90;99.90;;;;;;4953434;29;20040;-75
2023/12/08 08:00:23;;;;;;;0.10;0.10;;;1.80;99.90;;;;;;4931015;29;20032;-78
2023/12/08 08:02:49;;;;;;;6.43;5.97;;;2.00;99.90;;;;;;4946877;29;20679;-76
2023/12/08 08:05:15;;;;;;;0.20;0.20;;;2.00;99.90;;;;;;4946304;29;20026;-77
2023/12/08 08:07:52;;;;;;;0.10;0.10;;;2.00;99.90;;;;;;4946338;29;20086;-75
2023/12/08 08:10:18;;;;;;;0.10;0.10;;;2.10;99.90;;;;;;4945482;29;20027;-75
2023/12/08 08:12:44;;;;;;;0.10;0.10;;;2.30;99.90;;;;;;4945350;29;20042;-75
2023/12/08 08:15:09;;;;;;;0.10;0.10;;;2.30;99.90;;;;;;4945924;29;20027;-77
2023/12/08 08:17:36;;;;;;;0.10;0.10;;;2.30;99.90;;;;;;4950862;29;20093;-77
2023/12/08 08:20:01;;;;;;;0.10;0.10;;;2.20;99.90;;;;;;4928694;29;20649;-75
2023/12/08 08:22:27;;;;;;;0.10;0.10;;;2.20;99.90;;;;;;4945751;29;20023;-78
2023/12/08 08:24:53;;;;;;;0.10;0.10;;;2.10;99.90;;;;;;4946119;29;20625;-76
2023/12/08 08:27:19;;;;;;;0.00;0.00;;;2.10;99.90;;;;;;4946469;29;20020;-80
2023/12/08 08:29:45;;;;;;;0.10;0.10;;;2.80;99.90;;;;;;4946291;29;20054;-76
2023/12/08 08:32:17;;;;;;;0.10;0.10;;;2.30;99.90;;;;;;4946442;29;20717;-81
2023/12/08 08:34:43;;;;;;;0.00;0.00;;;2.30;99.90;;;;;;4946084;29;20038;-76
2023/12/08 08:37:09;;;;;;;0.10;0.10;;;2.30;99.90;;;;;;4947031;29;20055;-75
2023/12/08 08:39:35;;;;;;;0.10;0.10;;;2.20;99.90;;;;;;4955828;29;20066;-76
2023/12/08 08:42:01;;;;;;;14.55;13.77;;;2.30;99.90;;;;;;4934360;29;20031;-75
2023/12/08 08:44:27;;;;;;;0.20;0.20;;;2.40;99.90;;;;;;4968590;28;20043;-75
2023/12/08 08:46:53;;;;;;;0.13;0.13;;;2.30;99.90;;;;;;4972533;28;20023;-75
2023/12/08 08:49:19;;;;;;;0.10;0.10;;;2.40;99.90;;;;;;4953851;28;20259;-75
2023/12/08 08:51:45;;;;;;;0.40;0.40;;;2.40;99.90;;;;;;4954353;28;20041;-76
2023/12/08 08:54:11;;;;;;;0.10;0.10;;;2.30;99.90;;;;;;4948629;28;20019;-75
2023/12/08 08:56:37;;;;;;;0.10;0.10;;;2.40;99.90;;;;;;4965850;28;20650;-76
2023/12/08 08:59:03;;;;;;;2.97;2.63;;;2.50;99.90;;;;;;4950592;28;20441;-75
2023/12/08 09:01:29;;;;;;;0.50;0.50;;;2.70;99.90;;;;;;4972659;28;20023;-76
2023/12/08 09:03:55;;;;;;;0.10;0.10;;;2.60;99.90;;;;;;4972856;28;20037;-76
2023/12/08 09:06:22;;;;;;;0.20;0.20;;;2.80;99.90;;;;;;4965792;28;20421;-77
2023/12/08 09:08:48;;;;;;;0.20;0.20;;;2.90;99.90;;;;;;4964406;28;20047;-75
2023/12/08 09:11:22;;;;;;;0.10;0.10;;;2.90;99.90;;;;;;4954213;28;20034;-75
2023/12/08 09:13:48;;;;;;;0.10;0.10;;;2.90;99.90;;;;;;4971276;28;20035;-75
2023/12/08 09:16:14;;;;;;;0.17;0.17;;;2.90;99.90;;;;;;4970968;28;20559;-75
2023/12/08 09:18:40;;;;;;;0.10;0.10;;;3.00;99.90;;;;;;4967885;28;20046;-75
2023/12/08 09:21:05;;;;;;;0.10;0.10;;;3.10;99.90;;;;;;4962920;28;20030;-75
2023/12/08 09:23:31;;;;;;;0.20;0.20;;;3.30;99.90;;;;;;4961993;28;20054;-77
2023/12/08 09:25:59;;;;;;;0.10;0.10;;;3.40;99.90;;;;;;4962953;28;20026;-76
2023/12/08 09:28:25;;;;;;;3.45;3.35;;;3.50;99.90;;;;;;4962487;28;20019;-75
2023/12/08 09:30:51;;;;;;;0.10;0.10;;;3.80;99.90;;;;;;4944624;28;20098;-75
2023/12/08 09:33:17;;;;;;;2.03;2.00;;;4.00;99.90;;;;;;4964883;28;20061;-75
2023/12/08 09:35:42;;;;;;;0.10;0.10;;;4.20;99.90;;;;;;4964518;28;20031;-75
2023/12/08 09:38:08;;;;;;;0.10;0.10;;;4.20;99.90;;;;;;4950467;28;20046;-75
2023/12/08 09:40:37;;;;;;;0.10;0.10;;;4.30;99.90;;;;;;4961576;28;20027;-76
2023/12/08 09:43:18;;;;;;;0.00;0.00;;;4.40;99.90;;;;;;4957854;28;20063;-75
2023/12/08 09:45:45;;;;;;;0.10;0.10;;;4.40;99.90;;;;;;4941965;28;20031;-76
2023/12/08 09:48:12;;;;;;;0.00;0.00;;;4.60;99.90;;;;;;4924263;29;20723;-75
2023/12/08 09:50:44;;;;;;;0.10;0.10;;;4.80;99.90;;;;;;4942614;29;20714;-75
2023/12/08 09:53:10;;;;;;;0.10;0.10;;;4.50;99.90;;;;;;4925069;29;20097;-76
2023/12/08 09:55:37;;;;;;;8.18;7.88;;;4.80;99.90;;;;;;4925571;29;20655;-75
2023/12/08 09:58:04;;;;;;;0.10;0.10;;;4.90;99.90;;;;;;4942650;29;20027;-75
2023/12/08 10:00:32;;;;;;;0.10;0.10;;;4.00;99.90;;;;;;4941461;28;20226;-75
2023/12/08 10:02:59;;;;;;;0.10;0.10;;;5.00;99.90;;;;;;4942539;29;20027;-75
2023/12/08 10:05:25;;;;;;;0.10;0.10;;;5.10;99.90;;;;;;4943293;29;20031;-77
2023/12/08 10:07:51;;;;;;;0.10;0.10;;;4.90;99.90;;;;;;4942359;29;20023;-75
2023/12/08 10:10:19;;;;;;;0.10;0.10;;;5.20;99.90;;;;;;4953334;29;20078;-76
2023/12/08 10:12:45;;;;;;;0.10;0.10;;;5.40;99.90;;;;;;4927067;29;20043;-75
2023/12/08 10:15:12;;;;;;;0.10;0.10;;;5.50;99.90;;;;;;4945126;29;20114;-76
2023/12/08 10:17:51;;;;;;;0.20;0.20;;;5.50;99.90;;;;;;4949001;29;20035;-75
2023/12/08 10:20:22;;;;;;;0.10;0.10;;;5.70;99.90;;;;;;4952979;29;20027;-76
2023/12/08 10:22:56;;;;;;;0.10;0.10;;;5.80;99.90;;;;;;4942120;29;20023;-75
2023/12/08 10:25:24;;;;;;;0.10;0.10;;;4.10;99.90;;;;;;4942382;29;20027;-76
2023/12/08 10:27:53;;;;;;;0.10;0.10;;;5.90;99.90;;;;;;4926590;29;20123;-77
2023/12/08 10:30:20;;;;;;;0.10;0.10;;;6.20;99.90;;;;;;4942663;29;20019;-80
2023/12/08 10:32:48;;;;;;;0.10;0.10;;;6.30;99.90;;;;;;4942514;29;20027;-75
2023/12/08 10:35:14;;;;;;;0.10;0.10;;;6.30;99.90;;;;;;4942108;29;20106;-75
2023/12/08 10:37:41;;;;;;;0.10;0.10;;;6.20;99.90;;;;;;4941459;29;20162;-75
2023/12/08 10:40:17;;;;;;;0.10;0.10;;;6.30;99.90;;;;;;4942059;29;20043;-76
2023/12/08 10:42:48;;;;;;;1.20;1.20;;;6.50;99.90;;;;;;4910003;28;20035;-77
2023/12/08 10:45:16;;;;;;;0.10;0.10;;;6.60;99.90;;;;;;4961092;28;20033;-76
2023/12/08 10:47:45;;;;;;;0.10;0.10;;;6.40;99.90;;;;;;4943046;28;20138;-76
2023/12/08 10:50:12;;;;;;;0.22;0.22;;;8.00;99.90;;;;;;4961756;28;20681;-74
2023/12/08 10:52:38;;;;;;;1.23;1.17;;;7.00;99.90;;;;;;4944025;28;20023;-74
2023/12/08 10:55:08;;;;;;;0.15;0.15;;;7.00;99.90;;;;;;4960971;28;20026;-75
2023/12/08 10:57:36;;;;;;;0.10;0.10;;;7.00;99.90;;;;;;4943661;28;20166;-75
2023/12/08 11:00:38;;;;;;;0.10;0.10;;;6.90;99.90;;;;;;4960951;28;20454;-75
2023/12/08 11:03:01;;;;;;;0.20;0.20;;;6.90;99.90;;;;;;4955851;28;20594;-75
2023/12/08 11:05:38;;;;;;;22.48;10.15;;;6.90;99.90;;;;;;4974879;28;20015;-75
2023/12/08 11:08:12;;;;;;;0.30;0.30;;;7.20;99.90;;;;;;4971117;28;20019;-76
2023/12/08 11:10:38;;;;;;;;;;;7.30;99.90;;;;;;4960884;28;20074;-75
2023/12/08 11:13:11;;;;;;;0.10;0.10;;;7.10;99.90;;;;;;4942957;28;19917;-75
2023/12/08 11:16:11;;;;;;;0.20;0.20;;;6.70;99.90;;;;;;4960689;28;20671;-75
2023/12/08 11:18:40;;;;;;;0.10;0.10;;;7.00;99.90;;;;;;4847107;29;20622;-75
2023/12/08 11:21:10;;;;;;;0.20;0.20;;;7.00;99.90;;;;;;4862231;29;20037;-75
2023/12/08 11:23:38;;;;;;;0.20;0.20;;;6.90;99.90;;;;;;4863810;29;20147;-75
2023/12/08 11:26:29;;;;;;;0.13;0.13;;;7.00;99.90;;;;;;4864995;29;20037;-74
2023/12/08 11:29:19;;;;;;;3.78;3.58;;;6.90;99.90;;;;;;4865609;29;20028;-75
2023/12/08 11:32:00;;;;;;;0.20;0.20;;;6.50;99.90;;;;;;4872689;29;20025;-74
2023/12/08 11:34:37;;;;;;;0.10;0.10;;;6.40;99.90;;;;;;4872217;29;20036;-75
2023/12/08 11:37:06;;;;;;;0.10;0.10;;;6.40;99.90;;;;;;4871943;29;20045;-75
2023/12/08 11:39:38;;;;;;;0.10;0.10;;;6.20;99.90;;;;;;4871658;29;20025;-75
2023/12/08 11:42:09;;;;;;;0.10;0.10;;;6.20;99.90;;;;;;4868128;29;20037;-75
2023/12/08 11:44:39;;;;;;;0.10;0.10;;;6.40;99.90;;;;;;4852498;29;20061;-75
2023/12/08 11:47:09;;;;;;;0.05;0.05;;;6.30;99.90;;;;;;4873926;29;20080;-76
2023/12/08 11:49:36;;;;;;;0.40;0.40;;;6.30;99.90;;;;;;4864324;29;20544;-75
2023/12/08 11:52:13;;;;;;;0.65;0.65;;;6.20;99.90;;;;;;4876329;29;20091;-75
2023/12/08 11:55:06;;;;;;;0.10;0.10;;;6.20;99.90;;;;;;4880995;28;20108;-77
2023/12/08 11:57:33;;;;;;;0.10;0.10;;;6.30;99.90;;;;;;4948898;28;20281;-74
2023/12/08 12:00:00;;;;;;;0.10;0.10;;;6.20;99.90;;;;;;4966055;28;20031;-77
2023/12/08 12:02:26;;;;;;;0.10;0.10;;;6.20;99.90;;;;;;4971507;28;20046;-75
2023/12/08 12:04:51;;;;;;;0.10;0.10;;;6.20;99.90;;;;;;4978057;28;20019;-76
2023/12/08 12:07:20;;;;;;;0.15;0.15;;;6.20;99.90;;;;;;4976430;28;20505;-75
2023/12/08 12:09:50;;;;;;;0.10;0.10;;;6.20;99.90;;;;;;4974961;28;20034;-76
2023/12/08 12:12:48;;;;;;;0.10;0.10;;;6.20;99.90;;;;;;4967773;28;20038;-76
2023/12/08 12:15:17;;;;;;;0.10;0.10;;;6.20;99.90;;;;;;4968638;28;20027;-75
2023/12/08 12:17:43;;;;;;;0.10;0.10;;;6.10;99.90;;;;;;4973224;28;20030;-77
2023/12/08 12:20:11;;;;;;;0.28;0.28;;;6.10;99.90;;;;;;4965708;28;20504;-76
2023/12/08 12:22:39;;;;;;;0.20;0.20;;;6.00;99.90;;;;;;4947886;28;20528;-76
2023/12/08 12:25:10;;;;;;;0.10;0.10;;;6.00;99.90;;;;;;4963672;28;20072;-77
2023/12/08 12:27:49;;;;;;;0.05;0.05;;;6.10;99.90;;;;;;4964019;28;20505;-76
2023/12/08 12:30:22;;;;;;;0.00;0.00;;;6.30;99.90;;;;;;4963769;28;20067;-76
2023/12/08 12:32:49;;;;;;;0.10;0.10;;;6.40;99.90;;;;;;4964346;28;20030;-75
2023/12/08 12:35:16;;;;;;;0.10;0.10;;;6.50;99.90;;;;;;4964718;28;20093;-77
2023/12/08 12:37:45;;;;;;;0.10;0.10;;;6.50;99.90;;;;;;4947147;28;20031;-76
2023/12/08 12:40:12;;;;;;;0.10;0.10;;;6.70;99.90;;;;;;4968238;28;20053;-74
2023/12/08 12:42:46;;;;;;;0.10;0.10;;;6.90;99.90;;;;;;4949977;28;20037;-75
2023/12/08 12:45:50;;;;;;;0.10;0.10;;;7.00;99.90;;;;;;4967284;28;20717;-76
2023/12/08 12:48:24;;;;;;;0.20;0.20;;;7.50;99.90;;;;;;4982729;23;20089;-75
2023/12/08 12:50:53;;;;;;;0.10;0.10;;;7.10;99.90;;;;;;4966127;28;20022;-77
2023/12/08 12:53:19;;;;;;;0.10;0.10;;;7.20;99.90;;;;;;4968072;28;20053;-76
2023/12/08 12:55:45;;;;;;;0.10;0.10;;;7.30;99.90;;;;;;4989285;28;20014;-76
2023/12/08 12:58:21;;;;;;;0.10;0.10;;;7.30;99.90;;;;;;4991304;28;20039;-75
2023/12/08 13:00:48;;;;;;;3.55;3.42;;;7.30;99.90;;;;;;4991423;28;20018;-74
2023/12/08 13:03:17;;;;;;;0.10;0.10;;;7.40;99.90;;;;;;4983631;28;20054;-75